Time;durP1;ratioP1;P1;durP2;ratioP2;P2;SDS_P1;SDS_P2;PMS_P1;PMS_P2;Temp;Humidity;BMP_temperature;BMP_pressure;BME280_temperature;BME280_humidity;BME280_pressure;Samples;Min_cycle;Max_cycle;Signal;HPM_P1;HPM_P2
2021/09/25 00:01:08;;;;;;;14.18;11.68;;;;;;;12.87;100.00;99458.09;5074615;28;20222;-73
2021/09/25 00:03:34;;;;;;;15.13;12.20;;;;;;;12.86;100.00;99467.16;5074533;28;20214;-73
2021/09/25 00:06:01;;;;;;;10.82;9.55;;;;;;;12.89;100.00;99466.97;5075015;28;20913;-73
2021/09/25 00:08:29;;;;;;;13.77;11.38;;;;;;;12.92;100.00;99470.28;5074294;28;20196;-73
2021/09/25 00:10:55;;;;;;;13.10;9.90;;;;;;;12.93;100.00;99463.94;5074474;28;20206;-73
2021/09/25 00:13:22;;;;;;;10.48;9.35;;;;;;;12.90;100.00;99464.13;5074586;28;20914;-73
2021/09/25 00:15:48;;;;;;;12.38;10.63;;;;;;;12.99;100.00;99461.75;5074567;28;20227;-73
2021/09/25 00:18:15;;;;;;;13.43;10.10;;;;;;;13.11;100.00;99464.47;5074462;28;20517;-73
2021/09/25 00:20:42;;;;;;;11.75;10.30;;;;;;;13.13;100.00;99462.50;5074231;28;20239;-73
2021/09/25 00:23:09;;;;;;;12.60;11.30;;;;;;;13.06;100.00;99463.91;5074591;28;20187;-73
2021/09/25 00:25:37;;;;;;;13.32;10.73;;;;;;;13.13;100.00;99467.91;5073958;28;20273;-73
2021/09/25 00:28:04;;;;;;;13.07;10.20;;;;;;;13.18;100.00;99470.28;5074249;28;20389;-73
2021/09/25 00:30:31;;;;;;;12.85;11.50;;;;;;;13.25;100.00;99468.00;5074414;28;20286;-73
2021/09/25 00:32:58;;;;;;;11.40;10.20;;;;;;;13.18;100.00;99472.97;5074449;28;20333;-72
2021/09/25 00:35:24;;;;;;;12.18;10.90;;;;;;;13.14;100.00;99477.75;5074029;28;20982;-73
2021/09/25 00:37:51;;;;;;;11.63;10.10;;;;;;;13.00;100.00;99475.19;5073972;28;20187;-73
2021/09/25 00:40:18;;;;;;;12.82;10.95;;;;;;;12.85;100.00;99469.00;5074008;28;20273;-73
2021/09/25 00:42:46;;;;;;;12.35;10.32;;;;;;;12.70;100.00;99465.50;5073724;28;20232;-73
2021/09/25 00:45:14;;;;;;;14.88;11.10;;;;;;;12.36;100.00;99461.56;5074247;28;20699;-73
2021/09/25 00:47:41;;;;;;;13.32;10.93;;;;;;;12.49;100.00;99467.00;5073947;28;20206;-73
2021/09/25 00:50:09;;;;;;;11.20;10.10;;;;;;;12.77;100.00;99470.50;5073518;28;20189;-73
2021/09/25 00:52:36;;;;;;;11.82;10.50;;;;;;;12.69;100.00;99471.03;5074079;28;20208;-73
2021/09/25 00:55:03;;;;;;;16.52;10.38;;;;;;;12.71;100.00;99482.59;5074199;28;20531;-73
2021/09/25 00:57:30;;;;;;;10.88;9.85;;;;;;;12.82;100.00;99487.25;5073207;28;20227;-73
2021/09/25 00:59:58;;;;;;;12.85;10.55;;;;;;;12.69;100.00;99484.53;5073805;28;20197;-73
2021/09/25 01:02:25;;;;;;;14.48;11.20;;;;;;;12.56;100.00;99489.06;5073444;28;20192;-73
2021/09/25 01:04:52;;;;;;;12.38;10.55;;;;;;;12.38;100.00;99494.72;5073653;28;20201;-74
2021/09/25 01:07:18;;;;;;;12.75;11.45;;;;;;;12.26;100.00;99491.00;5073425;28;20275;-73
2021/09/25 01:09:45;;;;;;;11.27;10.18;;;;;;;12.07;100.00;99479.69;5073875;28;20188;-73
2021/09/25 01:12:12;;;;;;;13.43;11.15;;;;;;;12.07;100.00;99491.38;5073052;28;20204;-73
2021/09/25 01:14:39;;;;;;;13.52;10.57;;;;;;;12.16;100.00;99492.56;5073573;28;20192;-73
2021/09/25 01:17:10;;;;;;;13.27;10.13;;;;;;;12.15;100.00;99490.00;5072957;28;20212;-73
2021/09/25 01:19:37;;;;;;;12.32;11.05;;;;;;;12.03;100.00;99491.66;5073075;28;20181;-74
2021/09/25 01:22:06;;;;;;;13.88;10.27;;;;;;;12.06;100.00;99486.06;5073450;28;20184;-73
2021/09/25 01:24:33;;;;;;;12.25;10.38;;;;;;;12.31;100.00;99488.00;5072781;28;20184;-74
2021/09/25 01:27:00;;;;;;;12.38;11.10;;;;;;;12.31;100.00;99488.00;5072440;28;20193;-73
2021/09/25 01:29:30;;;;;;;15.02;11.27;;;;;;;12.28;100.00;99483.69;5073328;28;20190;-72
2021/09/25 01:31:57;;;;;;;10.57;9.32;;;;;;;11.96;100.00;99476.84;5073166;28;20534;-73
2021/09/25 01:34:23;;;;;;;14.10;10.63;;;;;;;11.78;100.00;99485.16;5072511;28;20200;-73
2021/09/25 01:36:51;;;;;;;11.25;10.13;;;;;;;11.79;100.00;99477.91;5072618;28;20232;-73
2021/09/25 01:39:19;;;;;;;11.40;10.30;;;;;;;11.78;100.00;99487.84;5073270;28;20191;-73
2021/09/25 01:41:46;;;;;;;11.45;10.25;;;;;;;11.80;100.00;99475.13;5073060;28;20211;-73
2021/09/25 01:44:13;;;;;;;13.70;11.43;;;;;;;12.00;100.00;99478.38;5073111;28;20181;-73
2021/09/25 01:46:39;;;;;;;12.02;10.82;;;;;;;11.98;100.00;99480.31;5072641;28;20606;-73
2021/09/25 01:49:06;;;;;;;15.85;11.20;;;;;;;11.88;100.00;99483.59;5072993;28;20507;-73
2021/09/25 01:51:33;;;;;;;11.52;10.35;;;;;;;12.02;100.00;99484.53;5073029;28;20216;-73
2021/09/25 01:54:00;;;;;;;13.57;11.30;;;;;;;12.01;100.00;99474.72;5072968;28;20228;-74
2021/09/25 01:56:27;;;;;;;12.50;10.30;;;;;;;11.93;100.00;99475.22;5072129;28;20216;-73
2021/09/25 01:58:54;;;;;;;11.60;10.40;;;;;;;11.79;100.00;99477.91;5072840;28;20194;-73
2021/09/25 02:01:21;;;;;;;11.20;10.05;;;;;;;11.69;100.00;99478.53;5072341;28;20204;-73
2021/09/25 02:03:47;;;;;;;15.80;10.70;;;;;;;11.85;100.00;99483.78;5072401;28;20181;-73
2021/09/25 02:06:14;;;;;;;11.85;10.63;;;;;;;11.81;100.00;99479.56;5072929;28;20201;-74
2021/09/25 02:08:42;;;;;;;11.43;10.32;;;;;;;11.72;100.00;99482.00;5072758;28;20181;-72
2021/09/25 02:11:09;;;;;;;13.35;10.50;;;;;;;11.81;100.00;99473.31;5072450;28;20193;-73
2021/09/25 02:13:37;;;;;;;14.10;10.55;;;;;;;11.74;100.00;99469.28;5072707;28;20672;-73
2021/09/25 02:16:04;;;;;;;12.35;10.60;;;;;;;11.53;100.00;99480.44;5072428;28;20220;-72
2021/09/25 02:18:31;;;;;;;11.75;10.27;;;;;;;11.42;100.00;99464.97;5072319;28;20188;-72
2021/09/25 02:20:58;;;;;;;14.75;11.02;;;;;;;11.31;100.00;99464.78;5072673;28;20230;-72
2021/09/25 02:23:24;;;;;;;13.60;10.48;;;;;;;11.29;100.00;99472.13;5072748;28;20271;-73
2021/09/25 02:25:51;;;;;;;14.52;10.93;;;;;;;11.32;100.00;99473.75;5072759;28;20184;-72
2021/09/25 02:28:18;;;;;;;12.00;10.18;;;;;;;11.32;100.00;99469.22;5072610;28;20629;-73
2021/09/25 02:30:46;;;;;;;13.35;11.60;;;;;;;11.22;100.00;99466.25;5072444;28;20181;-72
2021/09/25 02:33:13;;;;;;;12.85;10.52;;;;;;;11.11;100.00;99459.78;5072117;28;20189;-73
2021/09/25 02:35:41;;;;;;;17.95;11.43;;;;;;;11.09;100.00;99461.72;5072267;28;20705;-72
2021/09/25 02:38:08;;;;;;;11.30;10.13;;;;;;;11.12;100.00;99473.16;5072348;28;20205;-73
2021/09/25 02:40:35;;;;;;;12.23;10.80;;;;;;;11.17;100.00;99459.38;5072381;28;20181;-73
2021/09/25 02:43:02;;;;;;;17.35;10.50;;;;;;;11.19;100.00;99460.16;5072644;28;20200;-72
2021/09/25 02:45:28;;;;;;;13.45;11.10;;;;;;;11.27;100.00;99452.47;5071968;28;20185;-72
2021/09/25 02:47:56;;;;;;;12.85;11.50;;;;;;;11.43;100.00;99463.16;5072524;28;20267;-71
2021/09/25 02:50:23;;;;;;;12.57;10.70;;;;;;;11.29;100.00;99455.94;5072520;28;20535;-74
2021/09/25 02:52:53;;;;;;;12.10;10.85;;;;;;;11.34;100.00;99456.50;5072098;28;20196;-74
2021/09/25 02:55:19;;;;;;;12.75;10.18;;;;;;;11.44;100.00;99463.06;5072013;28;20271;-74
2021/09/25 02:57:46;;;;;;;11.60;10.35;;;;;;;11.51;100.00;99462.66;5072010;28;20216;-74
2021/09/25 03:00:16;;;;;;;15.75;11.15;;;;;;;11.62;100.00;99468.22;5072470;28;20184;-73
2021/09/25 03:02:43;;;;;;;12.90;10.70;;;;;;;11.72;100.00;99455.03;5071890;28;20627;-74
2021/09/25 03:05:12;;;;;;;11.32;9.73;;;;;;;11.46;100.00;99455.75;5072179;28;20206;-73
2021/09/25 03:07:39;;;;;;;12.63;10.23;;;;;;;11.18;100.00;99442.28;5072087;28;20231;-73
2021/09/25 03:10:08;;;;;;;12.60;11.27;;;;;;;10.99;100.00;99447.94;5072474;28;20264;-73
2021/09/25 03:12:35;;;;;;;12.40;10.77;;;;;;;10.97;100.00;99447.19;5072393;28;20307;-73
2021/09/25 03:15:04;;;;;;;13.40;10.20;;;;;;;10.91;100.00;99442.19;5075452;28;20189;-73
2021/09/25 03:17:30;;;;;;;12.63;9.88;;;;;;;10.77;100.00;99440.34;5075626;28;20674;-73
2021/09/25 03:19:57;;;;;;;14.27;11.07;;;;;;;10.89;100.00;99446.78;5075055;28;20181;-73
2021/09/25 03:22:25;;;;;;;11.43;9.52;;;;;;;10.99;100.00;99446.13;5075648;28;20630;-73
2021/09/25 03:24:52;;;;;;;12.10;9.88;;;;;;;10.88;100.00;99448.63;5075151;28;20201;-74
2021/09/25 03:27:19;;;;;;;14.07;9.45;;;;;;;11.00;100.00;99441.59;5075061;28;20185;-72
2021/09/25 03:29:46;;;;;;;11.13;9.65;;;;;;;10.88;100.00;99448.63;5075514;28;20181;-72
2021/09/25 03:32:13;;;;;;;12.30;10.73;;;;;;;11.04;100.00;99443.16;5075478;28;20337;-72
2021/09/25 03:34:39;;;;;;;13.15;9.95;;;;;;;11.00;100.00;99452.38;5075368;28;20611;-72
2021/09/25 03:37:06;;;;;;;12.80;10.63;;;;;;;10.78;100.00;99444.75;5074616;28;20232;-72
2021/09/25 03:39:34;;;;;;;16.13;10.55;;;;;;;10.58;100.00;99437.88;5075276;28;20211;-72
2021/09/25 03:42:00;;;;;;;14.48;9.95;;;;;;;10.55;100.00;99438.94;5074870;28;20187;-72
2021/09/25 03:44:27;;;;;;;12.23;10.85;;;;;;;10.60;100.00;99435.97;5074924;28;20200;-72
2021/09/25 03:46:55;;;;;;;12.40;10.55;;;;;;;10.63;100.00;99439.34;5075113;28;20645;-72
2021/09/25 03:49:22;;;;;;;13.23;10.25;;;;;;;10.79;100.00;99450.06;5074784;28;20181;-72
2021/09/25 03:51:48;;;;;;;11.45;9.82;;;;;;;10.94;100.00;99450.91;5074877;28;20206;-72
2021/09/25 03:54:15;;;;;;;11.32;10.13;;;;;;;10.96;100.00;99450.81;5074980;28;20689;-73
2021/09/25 03:56:43;;;;;;;11.25;9.55;;;;;;;10.88;100.00;99454.00;5074628;28;20307;-72
2021/09/25 03:59:09;;;;;;;11.55;10.20;;;;;;;10.90;100.00;99451.19;5074445;28;20200;-72
2021/09/25 04:01:36;;;;;;;13.73;9.98;;;;;;;10.93;100.00;99464.50;5074723;28;20189;-72
2021/09/25 04:04:03;;;;;;;13.30;10.65;;;;;;;10.92;100.00;99463.63;5074659;28;20206;-72
2021/09/25 04:06:29;;;;;;;12.35;10.05;;;;;;;10.91;100.00;99459.19;5074801;28;20188;-72
2021/09/25 04:08:56;;;;;;;11.70;9.90;;;;;;;10.85;100.00;99463.16;5074892;28;20201;-73
2021/09/25 04:11:23;;;;;;;11.00;9.68;;;;;;;10.94;100.00;99469.78;5074913;28;20208;-73
2021/09/25 04:13:51;;;;;;;13.13;11.30;;;;;;;10.84;100.00;99463.22;5074514;28;20195;-73
2021/09/25 04:16:17;;;;;;;15.43;10.38;;;;;;;10.64;100.00;99450.97;5074729;28;20185;-72
2021/09/25 04:18:44;;;;;;;12.20;10.88;;;;;;;10.50;100.00;99459.91;5074412;28;20229;-73
2021/09/25 04:21:14;;;;;;;12.70;10.20;;;;;;;10.66;100.00;99459.84;5074301;28;20227;-73
2021/09/25 04:23:40;;;;;;;12.40;9.30;;;;;;;10.54;100.00;99453.38;5073715;28;20181;-73
2021/09/25 04:26:07;;;;;;;11.50;10.30;;;;;;;10.34;100.00;99449.19;5073723;28;20203;-73
2021/09/25 04:28:34;;;;;;;11.75;10.57;;;;;;;10.32;100.00;99447.53;5071992;28;20197;-73
2021/09/25 04:31:01;;;;;;;12.65;10.45;;;;;;;10.34;100.00;99449.19;5082810;28;20220;-73
2021/09/25 04:33:28;;;;;;;11.57;9.40;;;;;;;10.43;100.00;99459.41;5083985;28;20536;-73
2021/09/25 04:35:55;;;;;;;12.57;9.40;;;;;;;10.54;100.00;99468.66;5083438;28;20224;-73
2021/09/25 04:38:21;;;;;;;11.82;10.55;;;;;;;10.71;100.00;99471.19;5083055;28;20221;-72
2021/09/25 04:40:48;;;;;;;13.75;11.00;;;;;;;10.79;100.00;99462.66;5083421;28;20698;-72
2021/09/25 04:43:15;;;;;;;12.02;10.63;;;;;;;10.60;100.00;99466.44;5085108;28;20196;-72
2021/09/25 04:45:41;;;;;;;13.80;10.27;;;;;;;10.52;100.00;99463.38;5083042;28;20707;-71
2021/09/25 04:48:09;;;;;;;10.95;9.57;;;;;;;10.61;100.00;99457.41;5081512;28;20279;-72
2021/09/25 04:50:36;;;;;;;12.45;10.60;;;;;;;10.50;100.00;99461.72;5085243;28;20275;-72
2021/09/25 04:53:08;;;;;;;10.98;9.80;;;;;;;10.40;100.00;99462.28;5082088;28;20698;-72
2021/09/25 04:55:35;;;;;;;11.23;10.00;;;;;;;10.49;100.00;99458.19;5078459;28;20185;-72
2021/09/25 04:58:01;;;;;;;14.07;11.60;;;;;;;10.66;100.00;99458.97;5085356;28;20294;-73
2021/09/25 05:00:28;;;;;;;10.90;9.57;;;;;;;10.35;100.00;99455.41;5081893;28;20192;-73
2021/09/25 05:02:54;;;;;;;12.70;10.65;;;;;;;10.19;100.00;99458.13;5084554;28;20191;-73
2021/09/25 05:05:22;;;;;;;12.25;10.95;;;;;;;10.46;100.00;99452.09;5081001;28;20665;-73
2021/09/25 05:07:49;;;;;;;11.80;10.30;;;;;;;10.26;100.00;99456.78;5077196;28;20558;-73
2021/09/25 05:10:16;;;;;;;11.30;9.55;;;;;;;10.39;100.00;99447.06;5084607;28;20200;-74
2021/09/25 05:12:43;;;;;;;13.80;11.57;;;;;;;10.53;100.00;99453.47;5082269;28;20184;-73
2021/09/25 05:15:10;;;;;;;12.43;10.75;;;;;;;10.63;100.00;99443.88;5083932;28;20185;-72
2021/09/25 05:17:37;;;;;;;12.15;10.05;;;;;;;10.45;100.00;99440.47;5077198;28;20238;-73
2021/09/25 05:20:04;;;;;;;13.50;10.98;;;;;;;10.40;100.00;99437.16;5080589;28;20189;-73
2021/09/25 05:22:32;;;;;;;12.50;10.25;;;;;;;10.44;100.00;99441.41;5081647;28;20691;-73
2021/09/25 05:24:59;;;;;;;14.55;11.57;;;;;;;10.37;100.00;99434.66;5077186;28;20196;-74
2021/09/25 05:27:25;;;;;;;13.00;10.68;;;;;;;10.49;100.00;99441.13;5084002;28;20270;-73
2021/09/25 05:29:52;;;;;;;12.23;11.00;;;;;;;10.43;100.00;99442.38;5077696;28;20195;-73
2021/09/25 05:32:19;;;;;;;14.05;11.48;;;;;;;10.55;100.00;99444.31;5074196;28;20802;-74
2021/09/25 05:34:45;;;;;;;11.85;10.63;;;;;;;10.54;100.00;99448.00;5062590;28;20525;-73
2021/09/25 05:37:14;;;;;;;13.18;11.55;;;;;;;10.56;100.00;99453.25;5061931;28;20674;-74
2021/09/25 05:39:42;;;;;;;12.73;10.77;;;;;;;10.55;100.00;99452.41;5060671;28;20217;-73
2021/09/25 05:42:09;;;;;;;12.23;10.48;;;;;;;10.55;100.00;99457.78;5062503;28;20181;-73
2021/09/25 05:44:36;;;;;;;15.70;10.80;;;;;;;10.40;100.00;99458.69;5062564;28;20647;-73
2021/09/25 05:47:03;;;;;;;13.30;10.75;;;;;;;10.41;100.00;99471.22;5061442;28;20536;-73
2021/09/25 05:49:29;;;;;;;14.98;11.55;;;;;;;10.57;100.00;99468.47;5061500;28;20235;-73
2021/09/25 05:51:56;;;;;;;15.02;11.38;;;;;;;10.39;100.00;99471.28;5073305;28;20203;-73
2021/09/25 05:54:23;;;;;;;13.98;10.80;;;;;;;10.52;100.00;99467.88;5073277;28;20189;-74
2021/09/25 05:56:51;;;;;;;11.13;9.95;;;;;;;10.55;100.00;99468.56;5065262;28;20205;-73
2021/09/25 05:59:17;;;;;;;12.55;10.50;;;;;;;10.62;100.00;99471.75;5062269;28;20212;-73
2021/09/25 06:01:44;;;;;;;13.63;10.82;;;;;;;10.68;100.00;99468.69;5060713;28;20189;-73
2021/09/25 06:04:10;;;;;;;12.40;11.10;;;;;;;10.52;100.00;99466.06;5062987;28;20190;-73
2021/09/25 06:06:37;;;;;;;12.13;10.88;;;;;;;10.33;100.00;99460.03;5062534;28;20283;-73
2021/09/25 06:09:04;;;;;;;12.95;11.65;;;;;;;10.38;100.00;99463.34;5061877;28;20185;-73
2021/09/25 06:11:30;;;;;;;12.23;10.70;;;;;;;10.56;100.00;99458.63;5061644;28;20532;-73
2021/09/25 06:13:58;;;;;;;14.13;10.68;;;;;;;10.66;100.00;99459.84;5063967;28;20219;-74
2021/09/25 06:16:25;;;;;;;16.67;11.23;;;;;;;10.76;100.00;99460.13;5063359;28;20185;-74
2021/09/25 06:18:51;;;;;;;12.98;10.02;;;;;;;10.67;99.97;99466.94;5059940;28;20601;-73
2021/09/25 06:21:18;;;;;;;12.80;11.45;;;;;;;10.84;99.67;99474.88;5067890;28;20195;-74
2021/09/25 06:23:46;;;;;;;13.80;11.63;;;;;;;11.12;97.24;99473.16;5062168;28;20197;-73
2021/09/25 06:26:13;;;;;;;13.95;11.60;;;;;;;11.25;95.78;99476.81;5068703;28;20614;-73
2021/09/25 06:28:39;;;;;;;16.38;10.98;;;;;;;11.21;95.35;99483.34;5064498;28;20221;-73
2021/09/25 06:31:07;;;;;;;13.05;11.60;;;;;;;11.37;94.61;99485.09;5066257;28;20659;-73
2021/09/25 06:33:34;;;;;;;20.80;12.57;;;;;;;11.42;93.69;99475.75;5066510;28;20207;-72
2021/09/25 06:36:00;;;;;;;14.65;12.43;;;;;;;11.48;93.65;99483.44;5064745;28;20230;-73
2021/09/25 06:38:27;;;;;;;14.65;11.45;;;;;;;11.48;93.48;99480.75;5062263;28;20227;-73
2021/09/25 06:40:54;;;;;;;13.40;11.95;;;;;;;11.74;92.62;99485.47;5061655;28;20516;-73
2021/09/25 06:43:20;;;;;;;15.45;11.07;;;;;;;11.76;92.65;99483.50;5062330;28;20272;-73
2021/09/25 06:45:47;;;;;;;14.00;11.63;;;;;;;11.75;93.04;99489.88;5062525;28;20276;-73
2021/09/25 06:48:15;;;;;;;13.00;11.60;;;;;;;11.68;93.60;99481.31;5064101;28;20535;-73
2021/09/25 06:50:42;;;;;;;12.98;11.68;;;;;;;11.62;94.29;99485.28;5067269;28;20182;-74
2021/09/25 06:53:08;;;;;;;12.80;11.50;;;;;;;11.57;94.73;99484.69;5062400;28;20190;-73
2021/09/25 06:55:35;;;;;;;12.93;11.60;;;;;;;11.83;94.25;99482.16;5072428;28;20192;-74
2021/09/25 06:58:02;;;;;;;14.90;11.60;;;;;;;11.68;95.20;99482.16;5079927;28;20208;-73
2021/09/25 07:00:28;;;;;;;16.95;13.45;;;;;;;11.57;96.45;99471.22;5076136;28;20291;-73
2021/09/25 07:02:55;;;;;;;18.75;12.95;;;;;;;11.56;97.92;99476.72;5075813;28;20185;-73
2021/09/25 07:05:23;;;;;;;16.60;12.15;;;;;;;11.83;96.43;99468.66;5076183;28;20200;-74
2021/09/25 07:07:50;;;;;;;14.45;12.93;;;;;;;12.04;94.34;99477.22;5076094;28;20275;-73
2021/09/25 07:10:18;;;;;;;15.55;12.45;;;;;;;12.02;94.14;99476.44;5076022;28;20185;-73
2021/09/25 07:12:45;;;;;;;15.90;13.27;;;;;;;11.99;94.83;99480.22;5075839;28;20586;-73
2021/09/25 07:15:13;;;;;;;15.27;12.75;;;;;;;12.22;94.22;99481.38;5076253;28;20195;-74
2021/09/25 07:17:39;;;;;;;14.63;12.13;;;;;;;12.68;91.84;99474.69;5075976;28;20280;-73
2021/09/25 07:20:07;;;;;;;14.55;11.88;;;;;;;13.31;87.46;99482.00;5076931;28;20545;-74
2021/09/25 07:22:36;;;;;;;15.18;12.35;;;;;;;13.89;83.65;99484.16;5075456;28;20193;-74
2021/09/25 07:25:02;;;;;;;17.52;13.07;;;;;;;14.36;79.27;99475.19;5075603;28;20358;-74
2021/09/25 07:27:29;;;;;;;13.55;11.95;;;;;;;14.23;79.06;99468.13;5075495;28;20189;-73
2021/09/25 07:29:56;;;;;;;21.75;18.02;;;;;;;14.05;79.97;99471.22;5073056;28;20597;-73
2021/09/25 07:32:22;;;;;;;21.65;16.80;;;;;;;14.05;80.47;99475.78;5075504;28;20242;-73
2021/09/25 07:34:49;;;;;;;15.40;13.57;;;;;;;14.00;81.06;99483.34;5074611;28;20196;-73
2021/09/25 07:37:16;;;;;;;16.85;12.70;;;;;;;14.00;81.51;99475.22;5074783;28;20259;-75
2021/09/25 07:39:44;;;;;;;15.25;12.77;;;;;;;14.02;82.48;99476.00;5075067;28;20215;-74
2021/09/25 07:42:11;;;;;;;17.05;13.95;;;;;;;13.98;82.64;99472.66;5075170;28;20724;-74
2021/09/25 07:44:38;;;;;;;17.60;12.98;;;;;;;13.71;84.01;99479.13;5075156;28;20183;-73
2021/09/25 07:47:05;;;;;;;27.15;24.73;;;;;;;13.77;84.60;99475.97;5075170;28;20190;-74
2021/09/25 07:49:31;;;;;;;16.60;14.15;;;;;;;14.10;83.01;99482.56;5074644;28;20207;-71
2021/09/25 07:51:58;;;;;;;15.30;13.70;;;;;;;14.18;82.98;99482.88;5075021;28;20618;-73
2021/09/25 07:54:25;;;;;;;16.88;12.90;;;;;;;13.97;83.99;99470.91;5074559;28;20191;-72
2021/09/25 07:56:53;;;;;;;17.40;14.75;;;;;;;14.12;83.77;99475.19;5074536;28;20205;-73
2021/09/25 07:59:20;;;;;;;16.13;13.18;;;;;;;14.32;82.82;99475.56;5073494;28;20228;-73
2021/09/25 08:01:47;;;;;;;40.50;29.20;;;;;;;14.33;82.57;99480.84;5074764;28;20512;-73
2021/09/25 08:04:14;;;;;;;21.02;17.60;;;;;;;14.42;82.56;99484.69;5074777;28;20198;-73
2021/09/25 08:06:41;;;;;;;19.90;16.13;;;;;;;14.57;82.22;99480.00;5074537;28;20188;-73
2021/09/25 08:09:08;;;;;;;15.10;13.50;;;;;;;14.68;82.44;99477.31;5074832;28;20184;-72
2021/09/25 08:11:34;;;;;;;14.93;13.32;;;;;;;14.78;82.02;99472.91;5073361;28;20212;-73
2021/09/25 08:14:03;;;;;;;14.88;13.18;;;;;;;14.96;81.33;99467.03;5073565;28;20210;-74
2021/09/25 08:16:30;;;;;;;19.92;12.90;;;;;;;15.13;81.14;99466.59;5074414;28;20210;-75
2021/09/25 08:18:57;;;;;;;12.80;11.48;;;;;;;15.24;80.71;99468.44;5074246;28;20216;-72
2021/09/25 08:21:24;;;;;;;17.80;15.95;;;;;;;15.22;81.37;99463.13;5074323;28;20340;-74
2021/09/25 08:23:50;;;;;;;17.27;11.65;;;;;;;15.43;80.68;99467.84;5073699;28;20204;-73
2021/09/25 08:26:17;;;;;;;13.60;12.30;;;;;;;15.65;79.70;99461.53;5074151;28;20185;-73
2021/09/25 08:28:44;;;;;;;13.60;12.05;;;;;;;15.78;78.95;99470.44;5073367;28;20197;-74
2021/09/25 08:31:12;;;;;;;13.07;11.77;;;;;;;15.73;79.13;99467.22;5073878;28;20197;-75
2021/09/25 08:33:38;;;;;;;12.10;10.90;;;;;;;15.95;78.59;99460.03;5073772;28;20201;-74
2021/09/25 08:36:05;;;;;;;14.82;12.30;;;;;;;16.05;78.06;99469.13;5073108;28;20240;-74
2021/09/25 08:38:31;;;;;;;15.45;12.05;;;;;;;16.14;77.66;99464.78;5073441;28;20212;-73
2021/09/25 08:40:59;;;;;;;15.55;12.20;;;;;;;16.25;77.07;99460.19;5072664;28;20201;-74
2021/09/25 08:43:26;;;;;;;16.00;13.40;;;;;;;16.49;76.49;99456.41;5072709;28;20192;-74
2021/09/25 08:45:57;;;;;;;14.13;10.80;;;;;;;16.74;75.26;99455.16;5073411;28;20194;-74
2021/09/25 08:48:25;;;;;;;15.15;10.70;;;;;;;16.91;74.47;99453.72;5073418;28;20553;-74
2021/09/25 08:50:51;;;;;;;12.60;10.63;;;;;;;16.94;74.69;99445.31;5072786;28;20185;-73
2021/09/25 08:53:18;;;;;;;11.35;10.18;;;;;;;16.75;76.05;99450.59;5073149;28;20207;-73
2021/09/25 08:55:45;;;;;;;11.23;10.15;;;;;;;16.95;75.49;99452.47;5073344;28;20631;-74
2021/09/25 08:58:12;;;;;;;12.80;10.50;;;;;;;16.87;75.74;99446.84;5073024;28;20228;-73
2021/09/25 09:00:43;;;;;;;11.00;9.90;;;;;;;17.26;73.91;99449.78;5073211;28;20642;-73
2021/09/25 09:03:27;;;;;;;11.98;10.75;;;;;;;17.32;73.81;99451.97;5072566;28;20522;-73
2021/09/25 09:06:03;;;;;;;11.55;10.32;;;;;;;17.67;72.23;99451.53;5072654;28;20205;-73
2021/09/25 09:08:29;;;;;;;15.32;12.75;;;;;;;17.76;71.65;99454.44;5072893;28;20203;-73
2021/09/25 09:10:56;;;;;;;13.80;12.00;;;;;;;18.02;70.25;99447.53;5072783;28;20197;-74
2021/09/25 09:13:23;;;;;;;13.18;11.70;;;;;;;18.09;69.04;99451.41;5053472;28;20198;-72
2021/09/25 09:15:51;;;;;;;19.50;12.55;;;;;;;18.36;68.77;99452.59;5053135;28;20185;-74
2021/09/25 09:18:20;;;;;;;10.77;9.50;;;;;;;18.52;68.01;99444.69;5052666;28;20298;-74
2021/09/25 09:21:11;;;;;;;12.65;10.02;;;;;;;18.63;66.86;99440.97;5052478;28;20203;-74
2021/09/25 09:23:39;;;;;;;13.82;11.02;;;;;;;18.66;66.99;99442.53;5052434;28;20183;-73
2021/09/25 09:26:07;;;;;;;13.20;9.50;;;;;;;18.76;66.31;99436.03;5069460;28;20206;-73
2021/09/25 09:28:35;;;;;;;11.50;9.27;;;;;;;18.87;65.74;99431.47;5073268;28;20333;-73
2021/09/25 09:31:04;;;;;;;9.50;8.60;;;;;;;19.05;65.21;99426.97;5072871;28;20184;-74
2021/09/25 09:33:33;;;;;;;14.82;9.60;;;;;;;19.23;64.42;99432.53;5072576;28;20285;-71
2021/09/25 09:36:20;;;;;;;15.70;10.75;;;;;;;19.41;64.04;99431.75;5072737;28;20240;-74
2021/09/25 09:38:53;;;;;;;11.00;8.98;;;;;;;19.47;63.58;99437.47;5073049;28;20670;-74
2021/09/25 09:41:24;;;;;;;12.85;9.95;;;;;;;19.70;63.18;99437.13;5072755;28;20212;-72
2021/09/25 09:43:53;;;;;;;10.85;8.80;;;;;;;19.93;62.27;99440.28;5072960;28;20198;-74
2021/09/25 09:46:27;;;;;;;10.00;7.95;;;;;;;20.12;61.73;99437.41;5072660;28;20295;-74
2021/09/25 09:48:55;;;;;;;9.95;7.88;;;;;;;20.29;60.85;99437.63;5072659;28;20176;-73
2021/09/25 09:51:42;;;;;;;10.18;9.00;;;;;;;20.46;60.15;99428.53;5072642;28;20184;-73
2021/09/25 09:54:17;;;;;;;11.93;10.73;;;;;;;20.54;60.29;99425.88;5072034;28;20191;-73
2021/09/25 09:56:44;;;;;;;9.52;8.02;;;;;;;20.66;59.61;99422.94;5052975;28;20832;-73
2021/09/25 09:59:12;;;;;;;6.47;5.88;;;;;;;20.73;59.26;99413.06;5052335;28;20224;-73
2021/09/25 10:01:40;;;;;;;23.07;20.73;;;;;;;20.94;58.85;99413.59;5063817;28;20558;-73
2021/09/25 10:04:07;;;;;;;7.90;7.10;;;;;;;20.87;59.37;99419.84;5072538;28;20438;-73
2021/09/25 10:06:36;;;;;;;8.80;7.90;;;;;;;21.06;58.35;99429.75;5072691;28;20484;-74
2021/09/25 10:09:06;;;;;;;8.03;6.30;;;;;;;21.16;58.11;99425.00;5072331;28;20510;-74
2021/09/25 10:11:33;;;;;;;8.60;6.93;;;;;;;21.34;57.25;99427.69;5068772;28;20446;-73
2021/09/25 10:14:00;;;;;;;6.50;5.90;;;;;;;21.39;57.42;99412.50;5052514;28;20901;-74
2021/09/25 10:16:28;;;;;;;8.63;7.17;;;;;;;21.57;56.94;99422.53;5052257;28;20444;-73
2021/09/25 10:18:55;;;;;;;9.97;7.70;;;;;;;21.67;56.43;99414.19;5051508;28;20964;-73
2021/09/25 10:21:25;;;;;;;6.80;6.10;;;;;;;21.74;56.00;99412.50;5070537;28;20521;-73
2021/09/25 10:23:59;;;;;;;8.17;5.97;;;;;;;21.83;55.58;99395.91;5074678;28;20462;-73
2021/09/25 10:26:26;;;;;;;9.97;8.87;;;;;;;21.89;55.64;99394.41;5076009;28;20427;-72
2021/09/25 10:28:56;;;;;;;8.00;7.20;;;;;;;21.87;55.79;99388.22;5076287;28;20553;-73
2021/09/25 10:31:23;;;;;;;7.50;6.80;;;;;;;21.62;55.22;99387.28;5074913;28;20427;-73
2021/09/25 10:34:15;;;;;;;7.63;6.23;;;;;;;21.55;55.44;99392.56;5075400;28;20518;-73
2021/09/25 10:36:52;;;;;;;9.27;8.03;;;;;;;21.73;55.23;99392.47;5074754;28;20804;-73
2021/09/25 10:39:28;;;;;;;7.73;6.73;;;;;;;22.00;53.87;99377.66;5074531;28;20516;-74
2021/09/25 10:42:02;;;;;;;7.27;6.50;;;;;;;22.14;53.29;99373.38;5075230;28;20832;-72
2021/09/25 10:44:31;;;;;;;8.00;7.20;;;;;;;22.25;53.32;99374.94;5075398;28;20880;-73
2021/09/25 10:47:09;;;;;;;6.87;6.17;;;;;;;22.41;52.97;99376.84;5075121;28;20786;-72
2021/09/25 10:49:53;;;;;;;10.03;7.90;;;;;;;22.19;53.35;99370.97;5074531;28;20434;-73
2021/09/25 10:52:23;;;;;;;6.40;5.80;;;;;;;22.15;54.09;99371.50;5075001;28;20422;-73
2021/09/25 10:55:26;;;;;;;7.70;7.00;;;;;;;22.24;54.10;99365.03;5074352;28;20435;-73
2021/09/25 10:58:13;;;;;;;6.00;5.40;;;;;;;22.44;53.40;99373.78;5074695;28;20438;-74
2021/09/25 11:01:05;;;;;;;8.00;6.77;;;;;;;22.34;54.30;99370.34;5074562;28;21024;-74
2021/09/25 11:03:57;;;;;;;7.03;6.33;;;;;;;22.47;54.07;99373.44;5064108;28;20450;-74
2021/09/25 11:06:27;;;;;;;6.77;6.07;;;;;;;22.33;54.25;99364.00;5064264;28;20888;-73
2021/09/25 11:08:55;;;;;;;7.70;6.27;;;;;;;22.34;54.29;99360.25;5075143;28;20496;-72
2021/09/25 11:11:34;;;;;;;9.13;6.70;;;;;;;22.38;54.35;99367.06;5074512;28;20511;-73
2021/09/25 11:14:30;;;;;;;7.10;6.17;;;;;;;22.49;54.11;99357.66;5074594;28;20492;-73
2021/09/25 11:17:01;;;;;;;9.50;6.50;;;;;;;22.56;53.09;99352.34;5064551;28;20911;-74
2021/09/25 11:19:52;;;;;;;6.47;5.87;;;;;;;22.66;53.17;99350.28;5078502;28;20584;-74
2021/09/25 11:22:23;;;;;;;7.73;5.50;;;;;;;22.76;52.64;99347.34;5075088;28;20808;-74